sensor_id;sensor_type;location;lat;lon;timestamp;pressure;altitude;pressure_sealevel;temperature;humidity
5872;BME280;2962;51.312;7.378;2023-01-26T00:01:18;98163.47;;;-3.09;100.00
5872;BME280;2962;51.312;7.378;2023-01-26T00:03:44;98169.13;;;-2.95;100.00
5872;BME280;2962;51.312;7.378;2023-01-26T00:06:12;98160.06;;;-2.89;100.00
5872;BME280;2962;51.312;7.378;2023-01-26T00:08:45;98146.97;;;-3.11;100.00
5872;BME280;2962;51.312;7.378;2023-01-26T00:11:13;98157.91;;;-3.07;100.00
5872;BME280;2962;51.312;7.378;2023-01-26T00:13:39;98150.16;;;-3.14;100.00
5872;BME280;2962;51.312;7.378;2023-01-26T00:16:13;98162.63;;;-3.20;100.00
5872;BME280;2962;51.312;7.378;2023-01-26T00:18:40;98147.44;;;-3.19;100.00
5872;BME280;2962;51.312;7.378;2023-01-26T00:21:06;98139.44;;;-3.29;100.00
5872;BME280;2962;51.312;7.378;2023-01-26T00:23:34;98140.75;;;-3.32;100.00
5872;BME280;2962;51.312;7.378;2023-01-26T00:25:59;98140.78;;;-3.16;100.00
5872;BME280;2962;51.312;7.378;2023-01-26T00:28:26;98131.44;;;-3.19;100.00
5872;BME280;2962;51.312;7.378;2023-01-26T00:30:51;98121.28;;;-3.32;100.00
5872;BME280;2962;51.312;7.378;2023-01-26T00:33:17;98142.66;;;-3.22;100.00
5872;BME280;2962;51.312;7.378;2023-01-26T00:35:42;98135.69;;;-3.28;100.00
5872;BME280;2962;51.312;7.378;2023-01-26T00:38:11;98128.22;;;-3.36;100.00
5872;BME280;2962;51.312;7.378;2023-01-26T00:40:38;98123.34;;;-3.55;100.00
5872;BME280;2962;51.312;7.378;2023-01-26T00:43:03;98120.22;;;-3.31;100.00
5872;BME280;2962;51.312;7.378;2023-01-26T00:45:28;98120.25;;;-3.26;100.00
5872;BME280;2962;51.312;7.378;2023-01-26T00:47:54;98114.94;;;-3.16;100.00
5872;BME280;2962;51.312;7.378;2023-01-26T00:50:19;98100.53;;;-3.30;100.00
5872;BME280;2962;51.312;7.378;2023-01-26T00:52:44;98098.81;;;-3.62;100.00
5872;BME280;2962;51.312;7.378;2023-01-26T00:55:10;98090.78;;;-3.67;100.00
5872;BME280;2962;51.312;7.378;2023-01-26T00:57:35;98094.03;;;-3.60;100.00
5872;BME280;2962;51.312;7.378;2023-01-26T01:00:00;98086.31;;;-3.56;100.00
5872;BME280;2962;51.312;7.378;2023-01-26T01:02:26;98096.69;;;-3.55;100.00
5872;BME280;2962;51.312;7.378;2023-01-26T01:04:51;98094.59;;;-3.53;100.00
5872;BME280;2962;51.312;7.378;2023-01-26T01:07:16;98081.78;;;-3.56;100.00
5872;BME280;2962;51.312;7.378;2023-01-26T01:09:41;98076.50;;;-3.46;100.00
5872;BME280;2962;51.312;7.378;2023-01-26T01:12:07;98079.13;;;-3.56;100.00
5872;BME280;2962;51.312;7.378;2023-01-26T01:14:32;98078.63;;;-3.53;100.00
5872;BME280;2962;51.312;7.378;2023-01-26T01:16:58;98081.28;;;-3.53;100.00
5872;BME280;2962;51.312;7.378;2023-01-26T01:19:23;98086.56;;;-3.63;100.00
5872;BME280;2962;51.312;7.378;2023-01-26T01:21:48;98078.84;;;-3.64;100.00
5872;BME280;2962;51.312;7.378;2023-01-26T01:24:14;98075.88;;;-3.68;100.00
5872;BME280;2962;51.312;7.378;2023-01-26T01:26:39;98072.38;;;-3.79;100.00
5872;BME280;2962;51.312;7.378;2023-01-26T01:29:05;98067.34;;;-3.70;100.00
5872;BME280;2962;51.312;7.378;2023-01-26T01:31:31;98071.88;;;-3.76;100.00
5872;BME280;2962;51.312;7.378;2023-01-26T01:33:56;98070.84;;;-3.64;100.00
5872;BME280;2962;51.312;7.378;2023-01-26T01:36:23;98052.44;;;-3.76;100.00
5872;BME280;2962;51.312;7.378;2023-01-26T01:38:48;98059.34;;;-3.75;100.00
5872;BME280;2962;51.312;7.378;2023-01-26T01:41:16;98067.91;;;-3.68;100.00
5872;BME280;2962;51.312;7.378;2023-01-26T01:43:42;98041.47;;;-3.85;100.00
5872;BME280;2962;51.312;7.378;2023-01-26T01:46:16;98068.97;;;-3.64;100.00
5872;BME280;2962;51.312;7.378;2023-01-26T01:48:49;98070.31;;;-3.61;100.00
5872;BME280;2962;51.312;7.378;2023-01-26T01:51:39;98058.84;;;-3.72;100.00
5872;BME280;2962;51.312;7.378;2023-01-26T01:54:11;98056.69;;;-3.75;100.00
5872;BME280;2962;51.312;7.378;2023-01-26T01:56:41;98053.75;;;-3.74;100.00
5872;BME280;2962;51.312;7.378;2023-01-26T01:59:08;98059.91;;;-3.68;100.00
5872;BME280;2962;51.312;7.378;2023-01-26T02:01:35;98053.53;;;-3.67;100.00
5872;BME280;2962;51.312;7.378;2023-01-26T02:04:03;98047.41;;;-3.67;100.00
5872;BME280;2962;51.312;7.378;2023-01-26T02:06:34;98051.94;;;-3.68;100.00
5872;BME280;2962;51.312;7.378;2023-01-26T02:09:00;98046.31;;;-3.66;100.00
5872;BME280;2962;51.312;7.378;2023-01-26T02:11:30;98037.00;;;-3.69;100.00
5872;BME280;2962;51.312;7.378;2023-01-26T02:13:58;98039.41;;;-3.73;100.00
5872;BME280;2962;51.312;7.378;2023-01-26T02:16:25;98029.78;;;-3.74;100.00
5872;BME280;2962;51.312;7.378;2023-01-26T02:18:50;98026.59;;;-3.76;100.00
5872;BME280;2962;51.312;7.378;2023-01-26T02:21:18;98027.91;;;-3.73;100.00
5872;BME280;2962;51.312;7.378;2023-01-26T02:26:17;98026.88;;;-3.72;100.00
5872;BME280;2962;51.312;7.378;2023-01-26T02:28:45;98029.56;;;-3.67;100.00
5872;BME280;2962;51.312;7.378;2023-01-26T02:31:11;98028.25;;;-3.64;100.00
5872;BME280;2962;51.312;7.378;2023-01-26T02:33:37;98020.50;;;-3.66;100.00
5872;BME280;2962;51.312;7.378;2023-01-26T02:36:03;98024.00;;;-3.60;100.00
5872;BME280;2962;51.312;7.378;2023-01-26T02:38:42;98010.41;;;-3.64;100.00
5872;BME280;2962;51.312;7.378;2023-01-26T02:41:11;98016.28;;;-3.57;100.00
5872;BME280;2962;51.312;7.378;2023-01-26T02:43:58;98013.84;;;-3.58;100.00
5872;BME280;2962;51.312;7.378;2023-01-26T02:46:23;98017.34;;;-3.48;100.00
5872;BME280;2962;51.312;7.378;2023-01-26T02:48:48;98004.03;;;-3.53;100.00
5872;BME280;2962;51.312;7.378;2023-01-26T02:51:32;98007.25;;;-3.46;100.00
5872;BME280;2962;51.312;7.378;2023-01-26T02:53:58;98017.38;;;-3.37;100.00
5872;BME280;2962;51.312;7.378;2023-01-26T02:56:23;98006.69;;;-3.42;100.00
5872;BME280;2962;51.312;7.378;2023-01-26T02:58:48;98004.06;;;-3.32;100.00
5872;BME280;2962;51.312;7.378;2023-01-26T03:01:13;98009.41;;;-3.37;100.00
5872;BME280;2962;51.312;7.378;2023-01-26T03:03:39;97983.28;;;-3.46;100.00
5872;BME280;2962;51.312;7.378;2023-01-26T03:06:09;97984.06;;;-3.35;100.00
5872;BME280;2962;51.312;7.378;2023-01-26T03:08:35;98006.22;;;-3.34;100.00
5872;BME280;2962;51.312;7.378;2023-01-26T03:11:02;97990.22;;;-3.34;100.00
5872;BME280;2962;51.312;7.378;2023-01-26T03:13:28;98000.59;;;-3.28;100.00
5872;BME280;2962;51.312;7.378;2023-01-26T03:15:53;97999.56;;;-3.27;100.00
5872;BME280;2962;51.312;7.378;2023-01-26T03:18:20;97990.22;;;-3.19;100.00
5872;BME280;2962;51.312;7.378;2023-01-26T03:21:09;97988.38;;;-3.13;100.00
5872;BME280;2962;51.312;7.378;2023-01-26T03:23:54;97979.56;;;-3.14;100.00
5872;BME280;2962;51.312;7.378;2023-01-26T03:26:38;98001.41;;;-2.97;100.00
5872;BME280;2962;51.312;7.378;2023-01-26T03:29:22;97995.56;;;-2.93;100.00
5872;BME280;2962;51.312;7.378;2023-01-26T03:31:47;97993.97;;;-2.69;100.00
5872;BME280;2962;51.312;7.378;2023-01-26T03:34:12;97990.47;;;-2.64;100.00
5872;BME280;2962;51.312;7.378;2023-01-26T03:36:38;97990.19;;;-2.63;100.00
5872;BME280;2962;51.312;7.378;2023-01-26T03:39:03;97983.81;;;-2.67;100.00
5872;BME280;2962;51.312;7.378;2023-01-26T03:41:29;97989.94;;;-2.56;100.00
5872;BME280;2962;51.312;7.378;2023-01-26T03:44:13;97987.78;;;-2.49;100.00
5872;BME280;2962;51.312;7.378;2023-01-26T03:46:56;97988.34;;;-2.62;100.00
5872;BME280;2962;51.312;7.378;2023-01-26T03:49:40;97988.31;;;-2.47;100.00
5872;BME280;2962;51.312;7.378;2023-01-26T03:52:24;97987.50;;;-2.37;100.00
5872;BME280;2962;51.312;7.378;2023-01-26T03:55:08;97988.56;;;-2.43;100.00
5872;BME280;2962;51.312;7.378;2023-01-26T03:57:52;97979.78;;;-2.54;100.00
5872;BME280;2962;51.312;7.378;2023-01-26T04:00:18;97975.81;;;-2.67;100.00
5872;BME280;2962;51.312;7.378;2023-01-26T04:02:43;97970.97;;;-2.55;100.00
5872;BME280;2962;51.312;7.378;2023-01-26T04:05:27;97983.22;;;-2.43;100.00
5872;BME280;2962;51.312;7.378;2023-01-26T04:08:11;97989.09;;;-2.47;100.00
5872;BME280;2962;51.312;7.378;2023-01-26T04:10:49;97971.22;;;-2.41;100.00
5872;BME280;2962;51.312;7.378;2023-01-26T04:13:19;97982.69;;;-2.30;100.00
5872;BME280;2962;51.312;7.378;2023-01-26T04:16:04;97982.69;;;-2.30;100.00
5872;BME280;2962;51.312;7.378;2023-01-26T04:18:48;97974.94;;;-2.37;100.00
5872;BME280;2962;51.312;7.378;2023-01-26T04:21:32;97979.47;;;-2.42;100.00
5872;BME280;2962;51.312;7.378;2023-01-26T04:23:59;97982.41;;;-2.34;100.00
5872;BME280;2962;51.312;7.378;2023-01-26T04:26:30;97983.25;;;-2.49;100.00
5872;BME280;2962;51.312;7.378;2023-01-26T04:29:00;97976.31;;;-2.50;100.00
5872;BME280;2962;51.312;7.378;2023-01-26T04:31:26;97978.72;;;-2.53;100.00
5872;BME280;2962;51.312;7.378;2023-01-26T04:33:51;97975.47;;;-2.35;100.00
5872;BME280;2962;51.312;7.378;2023-01-26T04:36:17;97981.38;;;-2.38;100.00
5872;BME280;2962;51.312;7.378;2023-01-26T04:38:42;97978.69;;;-2.43;100.00
5872;BME280;2962;51.312;7.378;2023-01-26T04:41:07;97973.63;;;-2.34;100.00
5872;BME280;2962;51.312;7.378;2023-01-26T04:43:32;97978.66;;;-2.33;100.00
5872;BME280;2962;51.312;7.378;2023-01-26T04:46:00;97971.19;;;-2.26;100.00
5872;BME280;2962;51.312;7.378;2023-01-26T04:48:27;97978.91;;;-2.24;100.00
5872;BME280;2962;51.312;7.378;2023-01-26T04:50:57;97973.66;;;-2.50;100.00
5872;BME280;2962;51.312;7.378;2023-01-26T04:53:24;97975.50;;;-2.45;100.00
5872;BME280;2962;51.312;7.378;2023-01-26T04:55:49;97968.28;;;-2.34;100.00
5872;BME280;2962;51.312;7.378;2023-01-26T04:58:14;97981.63;;;-2.34;100.00
5872;BME280;2962;51.312;7.378;2023-01-26T05:00:40;97971.50;;;-2.48;100.00
5872;BME280;2962;51.312;7.378;2023-01-26T05:03:05;97986.69;;;-2.43;100.00
5872;BME280;2962;51.312;7.378;2023-01-26T05:05:37;97975.28;;;-2.74;100.00
5872;BME280;2962;51.312;7.378;2023-01-26T05:08:04;97975.28;;;-2.74;100.00
5872;BME280;2962;51.312;7.378;2023-01-26T05:10:29;97973.94;;;-2.72;100.00
5872;BME280;2962;51.312;7.378;2023-01-26T05:12:55;97973.97;;;-2.77;100.00
5872;BME280;2962;51.312;7.378;2023-01-26T05:15:20;97977.16;;;-2.64;100.00
5872;BME280;2962;51.312;7.378;2023-01-26T05:17:45;97980.31;;;-2.62;100.00
5872;BME280;2962;51.312;7.378;2023-01-26T05:20:11;97981.94;;;-2.66;100.00
5872;BME280;2962;51.312;7.378;2023-01-26T05:22:36;97974.47;;;-2.64;100.00
5872;BME280;2962;51.312;7.378;2023-01-26T05:25:01;97982.75;;;-2.71;100.00
5872;BME280;2962;51.312;7.378;2023-01-26T05:27:27;97984.06;;;-2.53;100.00
5872;BME280;2962;51.312;7.378;2023-01-26T05:29:52;97985.41;;;-2.71;100.00
5872;BME280;2962;51.312;7.378;2023-01-26T05:32:19;97987.00;;;-2.50;100.00
5872;BME280;2962;51.312;7.378;2023-01-26T05:34:46;97986.19;;;-2.55;100.00
5872;BME280;2962;51.312;7.378;2023-01-26T05:37:11;97978.75;;;-2.68;100.00
5872;BME280;2962;51.312;7.378;2023-01-26T05:39:36;97979.25;;;-2.51;100.00
5872;BME280;2962;51.312;7.378;2023-01-26T05:42:02;97974.47;;;-2.59;100.00
5872;BME280;2962;51.312;7.378;2023-01-26T05:44:27;97983.53;;;-2.71;100.00
5872;BME280;2962;51.312;7.378;2023-01-26T05:46:53;97987.53;;;-2.53;100.00
5872;BME280;2962;51.312;7.378;2023-01-26T05:49:19;97987.78;;;-2.54;100.00
5872;BME280;2962;51.312;7.378;2023-01-26T05:51:44;97986.97;;;-2.34;100.00
5872;BME280;2962;51.312;7.378;2023-01-26T05:54:09;97983.16;;;-2.23;100.00
5872;BME280;2962;51.312;7.378;2023-01-26T05:56:35;97977.06;;;-2.39;100.00
5872;BME280;2962;51.312;7.378;2023-01-26T05:59:00;97990.69;;;-2.40;100.00
5872;BME280;2962;51.312;7.378;2023-01-26T06:01:25;97980.81;;;-2.40;100.00
5872;BME280;2962;51.312;7.378;2023-01-26T06:03:50;97989.09;;;-2.47;100.00
5872;BME280;2962;51.312;7.378;2023-01-26T06:06:16;97981.31;;;-2.28;100.00
5872;BME280;2962;51.312;7.378;2023-01-26T06:08:41;97987.72;;;-2.29;100.00
5872;BME280;2962;51.312;7.378;2023-01-26T06:11:06;97979.97;;;-2.25;100.00
5872;BME280;2962;51.312;7.378;2023-01-26T06:13:32;97992.75;;;-2.07;100.00
5872;BME280;2962;51.312;7.378;2023-01-26T06:15:59;97983.41;;;-2.09;100.00
5872;BME280;2962;51.312;7.378;2023-01-26T06:18:25;97993.56;;;-2.16;100.00
5872;BME280;2962;51.312;7.378;2023-01-26T06:20:50;97985.38;;;-2.46;100.00
5872;BME280;2962;51.312;7.378;2023-01-26T06:23:16;97998.72;;;-2.46;100.00
5872;BME280;2962;51.312;7.378;2023-01-26T06:25:41;98012.81;;;-2.35;100.00
5872;BME280;2962;51.312;7.378;2023-01-26T06:28:06;98006.94;;;-2.32;100.00
5872;BME280;2962;51.312;7.378;2023-01-26T06:30:32;97995.78;;;-2.54;100.00
5872;BME280;2962;51.312;7.378;2023-01-26T06:32:58;98013.09;;;-2.31;100.00
5872;BME280;2962;51.312;7.378;2023-01-26T06:35:24;97972.06;;;-2.61;100.00
5872;BME280;2962;51.312;7.378;2023-01-26T06:37:51;98014.69;;;-2.35;100.00
5872;BME280;2962;51.312;7.378;2023-01-26T06:40:17;98012.06;;;-2.46;100.00
5872;BME280;2962;51.312;7.378;2023-01-26T06:42:50;98006.72;;;-2.56;100.00
5872;BME280;2962;51.312;7.378;2023-01-26T06:45:18;98008.06;;;-2.38;100.00
5872;BME280;2962;51.312;7.378;2023-01-26T06:47:48;98016.06;;;-2.38;100.00
5872;BME280;2962;51.312;7.378;2023-01-26T06:50:17;98012.84;;;-2.30;100.00
5872;BME280;2962;51.312;7.378;2023-01-26T06:52:46;98010.13;;;-2.25;100.00
5872;BME280;2962;51.312;7.378;2023-01-26T06:55:36;98017.34;;;-2.25;100.00
5872;BME280;2962;51.312;7.378;2023-01-26T06:58:01;98008.81;;;-2.32;100.00
5872;BME280;2962;51.312;7.378;2023-01-26T07:00:27;98012.84;;;-2.45;100.00
5872;BME280;2962;51.312;7.378;2023-01-26T07:02:52;98020.31;;;-2.47;100.00
5872;BME280;2962;51.312;7.378;2023-01-26T07:05:17;98009.13;;;-2.44;100.00
5872;BME280;2962;51.312;7.378;2023-01-26T07:07:43;97995.00;;;-2.60;100.00
5872;BME280;2962;51.312;7.378;2023-01-26T07:10:08;98008.81;;;-2.27;100.00
5872;BME280;2962;51.312;7.378;2023-01-26T07:12:44;97996.84;;;-2.40;100.00
5872;BME280;2962;51.312;7.378;2023-01-26T07:15:11;98012.28;;;-2.22;100.00
5872;BME280;2962;51.312;7.378;2023-01-26T07:17:38;98017.59;;;-2.22;100.00
5872;BME280;2962;51.312;7.378;2023-01-26T07:20:04;98012.28;;;-2.22;100.00
5872;BME280;2962;51.312;7.378;2023-01-26T07:22:30;98003.16;;;-2.10;100.00
5872;BME280;2962;51.312;7.378;2023-01-26T07:24:55;97998.66;;;-2.15;100.00
5872;BME280;2962;51.312;7.378;2023-01-26T07:27:20;97994.03;;;-2.04;100.00
5872;BME280;2962;51.312;7.378;2023-01-26T07:29:46;97994.63;;;-2.17;100.00
5872;BME280;2962;51.312;7.378;2023-01-26T07:32:11;97998.09;;;-2.07;100.00
5872;BME280;2962;51.312;7.378;2023-01-26T07:34:36;98002.28;;;-1.90;100.00
5872;BME280;2962;51.312;7.378;2023-01-26T07:37:02;98003.63;;;-1.93;100.00
5872;BME280;2962;51.312;7.378;2023-01-26T07:39:29;97999.38;;;-1.94;100.00
5872;BME280;2962;51.312;7.378;2023-01-26T07:41:54;97993.22;;;-1.94;100.00
5872;BME280;2962;51.312;7.378;2023-01-26T07:44:19;98006.53;;;-1.84;100.00
5872;BME280;2962;51.312;7.378;2023-01-26T07:46:44;98008.47;;;-2.05;100.00
5872;BME280;2962;51.312;7.378;2023-01-26T07:49:10;98004.53;;;-2.18;100.00
5872;BME280;2962;51.312;7.378;2023-01-26T07:51:36;98009.72;;;-1.82;100.00
5872;BME280;2962;51.312;7.378;2023-01-26T07:54:02;98008.09;;;-1.78;100.00
5872;BME280;2962;51.312;7.378;2023-01-26T07:56:27;98009.22;;;-1.84;100.00
5872;BME280;2962;51.312;7.378;2023-01-26T07:58:53;98018.00;;;-1.79;100.00
5872;BME280;2962;51.312;7.378;2023-01-26T08:01:18;98015.25;;;-1.63;100.00
5872;BME280;2962;51.312;7.378;2023-01-26T08:03:44;98007.50;;;-1.60;100.00
5872;BME280;2962;51.312;7.378;2023-01-26T08:06:10;98014.69;;;-1.55;100.00
5872;BME280;2962;51.312;7.378;2023-01-26T08:08:36;98025.56;;;-1.47;100.00
5872;BME280;2962;51.312;7.378;2023-01-26T08:11:05;98024.28;;;-1.54;100.00
5872;BME280;2962;51.312;7.378;2023-01-26T08:13:30;98022.69;;;-1.55;100.00
5872;BME280;2962;51.312;7.378;2023-01-26T08:16:06;98024.84;;;-1.57;100.00
5872;BME280;2962;51.312;7.378;2023-01-26T08:18:37;98014.97;;;-1.57;100.00
5872;BME280;2962;51.312;7.378;2023-01-26T08:21:02;98015.47;;;-1.50;100.00
5872;BME280;2962;51.312;7.378;2023-01-26T08:23:28;98010.03;;;-1.39;100.00
5872;BME280;2962;51.312;7.378;2023-01-26T08:25:54;98014.09;;;-1.42;100.00
5872;BME280;2962;51.312;7.378;2023-01-26T08:28:20;98020.28;;;-1.52;100.00
5872;BME280;2962;51.312;7.378;2023-01-26T08:30:46;98017.09;;;-1.54;100.00
5872;BME280;2962;51.312;7.378;2023-01-26T08:33:11;98030.50;;;-1.64;100.00
5872;BME280;2962;51.312;7.378;2023-01-26T08:35:36;98031.00;;;-1.62;100.00
5872;BME280;2962;51.312;7.378;2023-01-26T08:38:02;98029.91;;;-1.56;100.00
5872;BME280;2962;51.312;7.378;2023-01-26T08:40:28;98024.03;;;-1.58;100.00
5872;BME280;2962;51.312;7.378;2023-01-26T08:42:53;98032.28;;;-1.54;100.00
5872;BME280;2962;51.312;7.378;2023-01-26T08:45:18;98036.25;;;-1.47;100.00
5872;BME280;2962;51.312;7.378;2023-01-26T08:47:47;98038.94;;;-1.47;100.00
5872;BME280;2962;51.312;7.378;2023-01-26T08:50:13;98033.59;;;-1.47;100.00
5872;BME280;2962;51.312;7.378;2023-01-26T08:52:38;98033.00;;;-1.33;100.00
5872;BME280;2962;51.312;7.378;2023-01-26T08:55:03;98038.06;;;-1.27;100.00
5872;BME280;2962;51.312;7.378;2023-01-26T08:57:29;98042.56;;;-1.22;100.00
5872;BME280;2962;51.312;7.378;2023-01-26T08:59:54;98043.16;;;-1.30;100.00
5872;BME280;2962;51.312;7.378;2023-01-26T09:02:19;98045.72;;;-1.15;100.00
5872;BME280;2962;51.312;7.378;2023-01-26T09:04:45;98049.44;;;-1.11;100.00
5872;BME280;2962;51.312;7.378;2023-01-26T09:07:10;98044.91;;;-1.10;100.00
5872;BME280;2962;51.312;7.378;2023-01-26T09:09:35;98048.88;;;-1.08;100.00
5872;BME280;2962;51.312;7.378;2023-01-26T09:12:00;98051.03;;;-1.10;100.00
5872;BME280;2962;51.312;7.378;2023-01-26T09:14:26;98055.28;;;-1.04;100.00
5872;BME280;2962;51.312;7.378;2023-01-26T09:16:52;98054.44;;;-0.99;100.00
5872;BME280;2962;51.312;7.378;2023-01-26T09:19:17;98045.16;;;-1.12;100.00
5872;BME280;2962;51.312;7.378;2023-01-26T09:21:43;98045.19;;;-1.17;100.00
5872;BME280;2962;51.312;7.378;2023-01-26T09:24:08;98052.56;;;-0.99;100.00
5872;BME280;2962;51.312;7.378;2023-01-26T09:26:33;98052.38;;;-1.07;100.00
5872;BME280;2962;51.312;7.378;2023-01-26T09:28:59;98061.19;;;-1.07;100.00
5872;BME280;2962;51.312;7.378;2023-01-26T09:31:24;98054.75;;;-1.06;100.00
5872;BME280;2962;51.312;7.378;2023-01-26T09:33:50;98050.34;;;-1.26;100.00
5872;BME280;2962;51.312;7.378;2023-01-26T09:36:15;98056.94;;;-1.13;100.00
5872;BME280;2962;51.312;7.378;2023-01-26T09:38:41;98060.59;;;-0.99;100.00
5872;BME280;2962;51.312;7.378;2023-01-26T09:43:52;98070.94;;;-0.87;100.00
5872;BME280;2962;51.312;7.378;2023-01-26T09:46:31;98065.88;;;-0.88;100.00
5872;BME280;2962;51.312;7.378;2023-01-26T09:49:06;98061.03;;;-0.86;100.00
5872;BME280;2962;51.312;7.378;2023-01-26T09:51:38;98054.25;;;-1.13;100.00
5872;BME280;2962;51.312;7.378;2023-01-26T09:54:16;98063.78;;;-0.96;100.00
5872;BME280;2962;51.312;7.378;2023-01-26T09:56:43;98050.13;;;-0.95;100.00
5872;BME280;2962;51.312;7.378;2023-01-26T10:02:00;98058.75;;;-1.03;100.00
5872;BME280;2962;51.312;7.378;2023-01-26T10:04:35;98060.59;;;-0.99;100.00
5872;BME280;2962;51.312;7.378;2023-01-26T10:07:04;98049.25;;;-0.85;100.00
5872;BME280;2962;51.312;7.378;2023-01-26T10:09:35;98047.13;;;-0.83;100.00
5872;BME280;2962;51.312;7.378;2023-01-26T10:12:07;98041.03;;;-0.94;100.00
5872;BME280;2962;51.312;7.378;2023-01-26T10:14:36;98031.41;;;-0.95;100.00
5872;BME280;2962;51.312;7.378;2023-01-26T10:17:06;98041.34;;;-1.01;100.00
5872;BME280;2962;51.312;7.378;2023-01-26T10:19:43;98043.31;;;-0.77;100.00
5872;BME280;2962;51.312;7.378;2023-01-26T10:22:23;98033.44;;;-0.77;100.00
5872;BME280;2962;51.312;7.378;2023-01-26T10:24:52;98023.78;;;-0.78;100.00
5872;BME280;2962;51.312;7.378;2023-01-26T10:27:19;98036.34;;;-0.73;100.00
5872;BME280;2962;51.312;7.378;2023-01-26T10:29:45;98032.66;;;-0.82;100.00
5872;BME280;2962;51.312;7.378;2023-01-26T10:32:16;98033.72;;;-0.83;100.00
5872;BME280;2962;51.312;7.378;2023-01-26T10:34:43;98030.81;;;-0.87;100.00
5872;BME280;2962;51.312;7.378;2023-01-26T10:37:28;98036.97;;;-0.86;100.00
5872;BME280;2962;51.312;7.378;2023-01-26T10:40:01;98036.16;;;-0.87;100.00
5872;BME280;2962;51.312;7.378;2023-01-26T10:42:33;98034.72;;;-0.74;100.00
5872;BME280;2962;51.312;7.378;2023-01-26T10:45:00;98031.19;;;-0.64;100.00
5872;BME280;2962;51.312;7.378;2023-01-26T10:47:26;98028.88;;;-0.76;100.00
5872;BME280;2962;51.312;7.378;2023-01-26T10:50:14;98024.69;;;-0.87;100.00
5872;BME280;2962;51.312;7.378;2023-01-26T10:53:43;98021.28;;;-0.64;100.00
5872;BME280;2962;51.312;7.378;2023-01-26T10:56:12;98027.13;;;-0.62;100.00
5872;BME280;2962;51.312;7.378;2023-01-26T10:58:51;98033.44;;;-0.47;100.00
5872;BME280;2962;51.312;7.378;2023-01-26T11:01:18;98019.16;;;-0.67;100.00
5872;BME280;2962;51.312;7.378;2023-01-26T11:06:26;98013.59;;;-0.46;100.00
5872;BME280;2962;51.312;7.378;2023-01-26T11:08:52;98014.28;;;-0.60;100.00
5872;BME280;2962;51.312;7.378;2023-01-26T11:11:26;98009.63;;;-0.49;100.00
5872;BME280;2962;51.312;7.378;2023-01-26T11:14:14;98011.41;;;-0.39;100.00
5872;BME280;2962;51.312;7.378;2023-01-26T11:16:54;98010.69;;;-0.50;100.00
5872;BME280;2962;51.312;7.378;2023-01-26T11:19:42;98008.22;;;-0.70;100.00
5872;BME280;2962;51.312;7.378;2023-01-26T11:25:27;98019.19;;;-0.72;100.00
5872;BME280;2962;51.312;7.378;2023-01-26T11:28:18;98011.69;;;-0.70;100.00
5872;BME280;2962;51.312;7.378;2023-01-26T11:33:49;98013.75;;;-0.62;100.00
5872;BME280;2962;51.312;7.378;2023-01-26T11:42:21;98000.56;;;-0.53;100.00
5872;BME280;2962;51.312;7.378;2023-01-26T11:45:03;97995.72;;;-0.51;100.00
5872;BME280;2962;51.312;7.378;2023-01-26T11:58:01;98005.72;;;-0.62;100.00
5872;BME280;2962;51.312;7.378;2023-01-26T12:00:39;97991.69;;;-0.48;100.00
5872;BME280;2962;51.312;7.378;2023-01-26T12:03:13;97993.75;;;-0.69;100.00
5872;BME280;2962;51.312;7.378;2023-01-26T12:06:04;97986.53;;;-0.69;100.00
5872;BME280;2962;51.312;7.378;2023-01-26T12:08:32;97990.91;;;-0.54;100.00
5872;BME280;2962;51.312;7.378;2023-01-26T12:14:06;97998.41;;;-0.80;100.00
5872;BME280;2962;51.312;7.378;2023-01-26T12:19:39;97982.59;;;-1.11;100.00
5872;BME280;2962;51.312;7.378;2023-01-26T12:22:29;97981.63;;;-0.91;100.00
5872;BME280;2962;51.312;7.378;2023-01-26T12:25:01;97984.56;;;-0.92;100.00
5872;BME280;2962;51.312;7.378;2023-01-26T12:27:33;97977.25;;;-0.82;100.00
5872;BME280;2962;51.312;7.378;2023-01-26T12:30:22;97972.13;;;-0.73;100.00
5872;BME280;2962;51.312;7.378;2023-01-26T12:32:48;97975.25;;;-0.66;100.00
5872;BME280;2962;51.312;7.378;2023-01-26T12:38:13;97953.66;;;-0.75;100.00
5872;BME280;2962;51.312;7.378;2023-01-26T12:41:05;97960.31;;;-0.43;100.00
5872;BME280;2962;51.312;7.378;2023-01-26T12:43:46;97940.53;;;-0.71;100.00
5872;BME280;2962;51.312;7.378;2023-01-26T12:46:17;97945.13;;;-0.77;100.00
5872;BME280;2962;51.312;7.378;2023-01-26T12:48:47;97941.09;;;-0.74;100.00
5872;BME280;2962;51.312;7.378;2023-01-26T12:51:19;97950.03;;;-0.60;100.00
5872;BME280;2962;51.312;7.378;2023-01-26T12:53:53;97950.28;;;-0.56;100.00
5872;BME280;2962;51.312;7.378;2023-01-26T12:56:35;97937.13;;;-0.53;100.00
5872;BME280;2962;51.312;7.378;2023-01-26T12:59:30;97936.50;;;-0.44;100.00
5872;BME280;2962;51.312;7.378;2023-01-26T13:01:53;97945.78;;;-0.37;100.00
5872;BME280;2962;51.312;7.378;2023-01-26T13:04:19;97935.41;;;-0.43;100.00
5872;BME280;2962;51.312;7.378;2023-01-26T13:07:00;97936.50;;;-0.44;100.00
5872;BME280;2962;51.312;7.378;2023-01-26T13:09:25;97938.09;;;-0.43;100.00
5872;BME280;2962;51.312;7.378;2023-01-26T13:11:58;97930.97;;;-0.53;100.00
5872;BME280;2962;51.312;7.378;2023-01-26T13:19:53;97925.56;;;-0.72;100.00
5872;BME280;2962;51.312;7.378;2023-01-26T13:24:56;97929.66;;;-0.56;100.00
5872;BME280;2962;51.312;7.378;2023-01-26T13:35:16;97938.53;;;-0.84;100.00
5872;BME280;2962;51.312;7.378;2023-01-26T13:37:55;97923.50;;;-0.80;100.00
5872;BME280;2962;51.312;7.378;2023-01-26T13:40:26;97935.22;;;-0.76;100.00
5872;BME280;2962;51.312;7.378;2023-01-26T13:43:12;97940.91;;;-0.83;100.00
5872;BME280;2962;51.312;7.378;2023-01-26T13:51:05;97936.09;;;-0.86;100.00
5872;BME280;2962;51.312;7.378;2023-01-26T13:53:36;97942.53;;;-0.87;100.00
5872;BME280;2962;51.312;7.378;2023-01-26T13:56:05;97944.75;;;-0.94;100.00
5872;BME280;2962;51.312;7.378;2023-01-26T13:58:31;97929.47;;;-0.88;100.00
5872;BME280;2962;51.312;7.378;2023-01-26T14:01:06;97943.25;;;-0.76;100.00
5872;BME280;2962;51.312;7.378;2023-01-26T14:03:35;97940.28;;;-0.75;100.00
5872;BME280;2962;51.312;7.378;2023-01-26T14:06:04;97945.56;;;-0.69;100.00
5872;BME280;2962;51.312;7.378;2023-01-26T14:08:33;97940.34;;;-0.80;100.00
5872;BME280;2962;51.312;7.378;2023-01-26T14:11:01;97949.81;;;-0.63;100.00
5872;BME280;2962;51.312;7.378;2023-01-26T14:13:32;97949.63;;;-0.72;100.00
5872;BME280;2962;51.312;7.378;2023-01-26T14:15:59;97948.06;;;-0.73;100.00
5872;BME280;2962;51.312;7.378;2023-01-26T14:18:25;97938.53;;;-0.84;100.00
5872;BME280;2962;51.312;7.378;2023-01-26T14:21:02;97936.41;;;-0.87;100.00
5872;BME280;2962;51.312;7.378;2023-01-26T14:23:35;97954.44;;;-0.69;100.00
5872;BME280;2962;51.312;7.378;2023-01-26T14:26:07;97943.91;;;-0.60;100.00